Item Display Status Serial CT Sensor

Mooring Depth: 1 m

 

Deployed Sensor

  • Serial Number: 8798
  • NDBC Property Number: 35203
  • Start Date: 3/31/2023 (00:00:01 Z)
  • End Date: Currently Active
Water Temperature [°C]     6 entries per hour
Showing data from 9/12/2023 (22:50:00 Z) to 9/11/2023 (00:00:01 Z)
Previous Next [ Day | 3-Days | 7-Days ]
First Last
Prev [ Day | 3-Days | 7-Days ] Next
First Last

Start Time:     :
End Time:     :     
Time (in GMT) :00 :50 :40 :30 :20 :10
Previous Next [ Day | 3-Days | 7-Days ]
First Last
Prev [ Day | 3-Days | 7-Days ] Next
First Last


123 => good data
MM => data is determined as missing
-- => data not received/configured
Back to Top Back to Top
9/12/2023 23:00 to 22:10 -- 27.564 27.563 27.576 27.591 27.589
9/12/2023 22:00 to 21:10 27.599 27.603 27.606 27.605 27.606 27.624
9/12/2023 21:00 to 20:10 27.620 27.636 27.620 27.637 27.629 27.635
9/12/2023 20:00 to 19:10 27.636 27.649 27.643 27.645 27.623 27.626
9/12/2023 19:00 to 18:10 27.612 27.626 27.620 27.608 27.598 27.598
9/12/2023 18:00 to 17:10 27.613 27.612 27.601 27.609 27.593 27.591
9/12/2023 17:00 to 16:10 27.586 27.592 27.586 27.580 27.581 27.581
9/12/2023 16:00 to 15:10 27.577 27.575 27.574 27.573 27.571 27.563
9/12/2023 15:00 to 14:10 27.566 27.562 27.561 27.555 27.556 27.560
9/12/2023 14:00 to 13:10 27.550 27.556 27.555 27.560 27.565 27.559
9/12/2023 13:00 to 12:10 27.562 27.565 27.559 27.562 27.559 27.556
9/12/2023 12:00 to 11:10 27.561 27.562 27.567 27.566 27.558 27.563
9/12/2023 11:00 to 10:10 27.554 27.559 27.557 27.561 27.561 27.555
9/12/2023 10:00 to 9:10 27.559 27.564 27.568 27.558 27.560 27.566
9/12/2023 09:00 to 8:10 27.568 27.562 27.557 27.557 27.558 27.560
9/12/2023 08:00 to 7:10 27.550 27.556 27.552 27.551 27.548 27.541
9/12/2023 07:00 to 6:10 27.553 27.550 27.546 27.551 27.550 27.550
9/12/2023 06:00 to 5:10 27.549 27.544 27.548 27.539 27.551 27.562
9/12/2023 05:00 to 4:10 27.562 27.563 27.565 27.562 27.563 27.575
9/12/2023 04:00 to 3:10 27.569 27.565 27.568 27.559 27.565 27.573
9/12/2023 03:00 to 2:10 27.580 27.577 27.581 27.587 27.585 27.590
9/12/2023 02:00 to 1:10 27.598 27.591 27.582 27.587 27.591 27.592
9/12/2023 01:00 to 0:10 27.595 27.600 27.607 27.604 27.607 27.603
9/12/2023 00:00 to 23:10 27.613 27.611 27.618 27.611 27.620 27.622
9/11/2023 23:00 to 22:10 27.630 27.629 27.633 27.630 27.631 27.628
9/11/2023 22:00 to 21:10 27.620 27.620 27.621 27.619 27.615 27.613
9/11/2023 21:00 to 20:10 27.618 27.604 27.613 27.614 27.632 27.611
9/11/2023 20:00 to 19:10 27.607 27.613 27.612 27.617 27.603 27.610
9/11/2023 19:00 to 18:10 27.592 27.586 27.590 27.582 27.578 27.577
9/11/2023 18:00 to 17:10 27.584 27.584 27.582 27.582 27.582 27.581
9/11/2023 17:00 to 16:10 27.586 27.586 27.583 27.585 27.586 27.581
9/11/2023 16:00 to 15:10 27.580 27.584 27.581 27.581 27.581 27.574
9/11/2023 15:00 to 14:10 27.583 27.588 27.581 27.592 27.592 27.587
9/11/2023 14:00 to 13:10 27.595 27.603 27.592 27.587 27.593 27.597
9/11/2023 13:00 to 12:10 27.597 27.601 27.599 27.602 27.600 27.611
9/11/2023 12:00 to 11:10 27.606 27.611 27.611 27.610 27.607 27.601
9/11/2023 11:00 to 10:10 27.609 27.616 27.618 27.620 27.617 27.619
9/11/2023 10:00 to 9:10 27.611 27.621 27.617 27.626 27.622 27.617
9/11/2023 09:00 to 8:10 27.626 27.615 27.628 27.623 27.628 27.622
9/11/2023 08:00 to 7:10 27.631 27.631 27.625 27.635 27.637 27.636
9/11/2023 07:00 to 6:10 27.638 27.632 27.638 27.633 27.646 27.640
9/11/2023 06:00 to 5:10 27.643 27.641 27.649 27.652 27.642 27.650
9/11/2023 05:00 to 4:10 27.646 27.648 27.650 27.650 27.649 27.645
9/11/2023 04:00 to 3:10 27.649 27.648 27.654 27.647 27.652 27.659
9/11/2023 03:00 to 2:10 27.661 27.664 27.674 27.674 27.662 27.673
9/11/2023 02:00 to 1:10 27.680 27.679 27.679 27.677 27.670 27.672
9/11/2023 01:00 to 0:10 27.679 27.676 27.673 27.678 27.687 27.689

 

 

 

Conductivity [S/m]     6 entries per hour
Showing data from 9/12/2023 (22:50:00 Z) to 9/11/2023 (00:00:01 Z)
Previous Next [ Day | 3-Days | 7-Days ]
First Last
Prev [ Day | 3-Days | 7-Days ] Next
First Last

Start Time:     :
End Time:     :     
Time (in GMT) :00 :50 :40 :30 :20 :10
Previous Next [ Day | 3-Days | 7-Days ]
First Last
Prev [ Day | 3-Days | 7-Days ] Next
First Last


123 => good data
MM => data is determined as missing
-- => data not received/configured
Back to Top Back to Top
9/12/2023 23:00 to 22:10 -- 5.43902 5.43896 5.44036 5.44217 5.44176
9/12/2023 22:00 to 21:10 5.44319 5.44346 5.44399 5.44385 5.44419 5.44641
9/12/2023 21:00 to 20:10 5.44584 5.44782 5.44637 5.44840 5.44786 5.44868
9/12/2023 20:00 to 19:10 5.44868 5.45031 5.44971 5.45008 5.44842 5.44891
9/12/2023 19:00 to 18:10 5.44776 5.44902 5.44868 5.44751 5.44673 5.44656
9/12/2023 18:00 to 17:10 5.44812 5.44725 5.44693 5.44737 5.44586 5.44596
9/12/2023 17:00 to 16:10 5.44577 5.44608 5.44566 5.44517 5.44533 5.44544
9/12/2023 16:00 to 15:10 5.44523 5.44504 5.44483 5.44488 5.44479 5.44418
9/12/2023 15:00 to 14:10 5.44418 5.44395 5.44383 5.44321 5.44327 5.44366
9/12/2023 14:00 to 13:10 5.44287 5.44336 5.44358 5.44418 5.44459 5.44412
9/12/2023 13:00 to 12:10 5.44443 5.44476 5.44447 5.44455 5.44421 5.44404
9/12/2023 12:00 to 11:10 5.44496 5.44485 5.44517 5.44520 5.44427 5.44483
9/12/2023 11:00 to 10:10 5.44399 5.44474 5.44424 5.44454 5.44449 5.44392
9/12/2023 10:00 to 9:10 5.44436 5.44477 5.44481 5.44413 5.44438 5.44488
9/12/2023 09:00 to 8:10 5.44484 5.44435 5.44423 5.44400 5.44433 5.44455
9/12/2023 08:00 to 7:10 5.44394 5.44414 5.44386 5.44390 5.44367 5.44280
9/12/2023 07:00 to 6:10 5.44363 5.44324 5.44297 5.44323 5.44311 5.44275
9/12/2023 06:00 to 5:10 5.44243 5.44218 5.44264 5.44146 5.44305 5.44423
9/12/2023 05:00 to 4:10 5.44430 5.44453 5.44490 5.44432 5.44464 5.44557
9/12/2023 04:00 to 3:10 5.44490 5.44432 5.44427 5.44383 5.44477 5.44537
9/12/2023 03:00 to 2:10 5.44593 5.44563 5.44568 5.44663 5.44693 5.44773
9/12/2023 02:00 to 1:10 5.44807 5.44751 5.44680 5.44702 5.44699 5.44756
9/12/2023 01:00 to 0:10 5.44771 5.44813 5.44889 5.44871 5.44893 5.44867
9/12/2023 00:00 to 23:10 5.44959 5.44934 5.45008 5.44952 5.45040 5.45084
9/11/2023 23:00 to 22:10 5.45204 5.45182 5.45237 5.45223 5.45260 5.45234
9/11/2023 22:00 to 21:10 5.45162 5.45154 5.45169 5.45097 5.45062 5.45041
9/11/2023 21:00 to 20:10 5.45103 5.44982 5.45073 5.45058 5.45257 5.45069
9/11/2023 20:00 to 19:10 5.45021 5.45078 5.45049 5.45154 5.44953 5.45019
9/11/2023 19:00 to 18:10 5.44840 5.44787 5.44790 5.44686 5.44666 5.44686
9/11/2023 18:00 to 17:10 5.44751 5.44763 5.44760 5.44752 5.44777 5.44779
9/11/2023 17:00 to 16:10 5.44837 5.44804 5.44802 5.44835 5.44849 5.44791
9/11/2023 16:00 to 15:10 5.44778 5.44810 5.44801 5.44786 5.44778 5.44741
9/11/2023 15:00 to 14:10 5.44829 5.44881 5.44840 5.44947 5.44991 5.44903
9/11/2023 14:00 to 13:10 5.44994 5.45077 5.44987 5.44912 5.45006 5.44983
9/11/2023 13:00 to 12:10 5.44986 5.45019 5.44953 5.44950 5.44951 5.45046
9/11/2023 12:00 to 11:10 5.45055 5.45096 5.45118 5.45051 5.45093 5.44969
9/11/2023 11:00 to 10:10 5.45084 5.45113 5.45114 5.45136 5.45172 5.45170
9/11/2023 10:00 to 9:10 5.45060 5.45173 5.45153 5.45232 5.45140 5.45126
9/11/2023 09:00 to 8:10 5.45173 5.45090 5.45224 5.45162 5.45239 5.45206
9/11/2023 08:00 to 7:10 5.45289 5.45279 5.45226 5.45283 5.45329 5.45349
9/11/2023 07:00 to 6:10 5.45358 5.45325 5.45377 5.45344 5.45463 5.45397
9/11/2023 06:00 to 5:10 5.45440 5.45458 5.45473 5.45554 5.45455 5.45523
9/11/2023 05:00 to 4:10 5.45512 5.45484 5.45485 5.45504 5.45521 5.45453
9/11/2023 04:00 to 3:10 5.45504 5.45463 5.45537 5.45504 5.45537 5.45612
9/11/2023 03:00 to 2:10 5.45607 5.45679 5.45743 5.45718 5.45620 5.45761
9/11/2023 02:00 to 1:10 5.45804 5.45763 5.45772 5.45769 5.45710 5.45727
9/11/2023 01:00 to 0:10 5.45785 5.45739 5.45699 5.45770 5.45839 5.45882

 

 

 

Salinity [psu]     6 entries per hour
Showing data from 9/14/2023 (20:00:00 Z) to 9/13/2023 (00:00:01 Z)
Previous Next [ Day | 3-Days | 7-Days ]
First Last
Prev [ Day | 3-Days | 7-Days ] Next
First Last

Start Time:     :
End Time:     :     
Time (in GMT) :00 :50 :40 :30 :20 :10
Previous Next [ Day | 3-Days | 7-Days ]
First Last
Prev [ Day | 3-Days | 7-Days ] Next
First Last


123 => good data
MM => data is determined as missing
-- => data not received/configured
Back to Top Back to Top
9/14/2023 20:00 to 19:10 MM MM MM MM MM MM
9/14/2023 19:00 to 18:10 MM MM MM MM MM MM
9/14/2023 18:00 to 17:10 MM MM MM MM MM MM
9/14/2023 17:00 to 16:10 MM MM MM MM MM MM
9/14/2023 16:00 to 15:10 MM MM MM MM MM MM
9/14/2023 15:00 to 14:10 MM MM MM MM MM MM
9/14/2023 14:00 to 13:10 MM MM MM MM MM MM
9/14/2023 13:00 to 12:10 -- -- MM MM MM MM
9/14/2023 12:00 to 11:10 MM MM MM MM MM MM
9/14/2023 11:00 to 10:10 MM MM MM MM MM MM
9/14/2023 10:00 to 9:10 MM MM MM MM MM MM
9/14/2023 09:00 to 8:10 MM MM MM MM -- --
9/14/2023 08:00 to 7:10 MM MM MM MM MM MM
9/14/2023 07:00 to 6:10 MM MM MM MM MM MM
9/14/2023 06:00 to 5:10 MM MM MM MM MM MM
9/14/2023 05:00 to 4:10 MM MM MM MM MM MM
9/14/2023 04:00 to 3:10 MM MM MM MM MM MM
9/14/2023 03:00 to 2:10 MM MM MM MM MM MM
9/14/2023 02:00 to 1:10 MM MM MM MM MM MM
9/14/2023 01:00 to 0:10 MM MM MM MM MM MM
9/14/2023 00:00 to 23:10 MM MM MM MM MM MM
9/13/2023 23:00 to 22:10 MM MM MM MM MM MM
9/13/2023 22:00 to 21:10 MM MM MM MM MM MM
9/13/2023 21:00 to 20:10 MM MM MM MM MM MM
9/13/2023 20:00 to 19:10 MM MM -- -- MM MM
9/13/2023 19:00 to 18:10 MM MM MM MM MM MM
9/13/2023 18:00 to 17:10 MM MM MM MM MM MM
9/13/2023 17:00 to 16:10 MM MM MM MM MM MM
9/13/2023 16:00 to 15:10 MM MM MM MM MM MM
9/13/2023 15:00 to 14:10 MM MM MM MM MM MM
9/13/2023 14:00 to 13:10 MM MM MM MM MM MM
9/13/2023 13:00 to 12:10 MM MM MM MM MM MM
9/13/2023 12:00 to 11:10 MM MM MM MM MM MM
9/13/2023 11:00 to 10:10 MM MM MM MM MM MM
9/13/2023 10:00 to 9:10 MM MM MM MM MM MM
9/13/2023 09:00 to 8:10 MM MM MM MM MM MM
9/13/2023 08:00 to 7:10 MM MM MM MM MM MM
9/13/2023 07:00 to 6:10 MM MM MM MM MM MM
9/13/2023 06:00 to 5:10 MM MM MM MM MM MM
9/13/2023 05:00 to 4:10 MM MM MM MM MM MM
9/13/2023 04:00 to 3:10 MM MM MM MM MM MM
9/13/2023 03:00 to 2:10 MM MM MM MM MM MM
9/13/2023 02:00 to 1:10 MM MM MM MM MM MM
9/13/2023 01:00 to 0:10 MM MM MM MM MM MM